TVS4591 LKKV-LKMT
Flight info
| Callsign | TVS4591 |
|---|---|
| Flight time | 0h 39m |
| Altitude | 29000 |
| Route | BALTU DCT OKL DCT VOZ DCT BODAL DCT BNO DCT UPLAV |
| Aircraft | B738/M-SDFGHIJ1LORVWXYZ/LB1 |
Departure
| Time | 2026-04-26 19:48 |
|---|---|
| Airport | Karlovy Vary Airport (LKKV) |
Arrival
| Time | 2026-04-26 20:28 |
|---|---|
| Airport | Leoš Janáček Airport Ostrava (LKMT) |
| Time | Latitude | Longitude | Altitude | Speed | Heading |
|---|---|---|---|---|---|
| 2026-04-26 19:48 | 50.13287 | 13.16982 | 9327 ft | 291 kts | 113° |
| 2026-04-26 19:48 | 50.12472 | 13.19895 | 10219 ft | 297 kts | 113° |
| 2026-04-26 19:49 | 50.11628 | 13.22924 | 10822 ft | 317 kts | 113° |
| 2026-04-26 19:49 | 50.10720 | 13.26183 | 11367 ft | 334 kts | 113° |
| 2026-04-26 19:49 | 50.09782 | 13.29541 | 12223 ft | 342 kts | 112° |
| 2026-04-26 19:49 | 50.08954 | 13.33032 | 13124 ft | 347 kts | 99° |
| 2026-04-26 19:50 | 50.08849 | 13.36769 | 14091 ft | 347 kts | 87° |
| 2026-04-26 19:50 | 50.08908 | 13.40566 | 15002 ft | 354 kts | 86° |
| 2026-04-26 19:50 | 50.08974 | 13.44428 | 15898 ft | 360 kts | 86° |
| 2026-04-26 19:50 | 50.09036 | 13.48331 | 16839 ft | 365 kts | 86° |
| 2026-04-26 19:51 | 50.09091 | 13.52325 | 17729 ft | 370 kts | 87° |
| 2026-04-26 19:51 | 50.09140 | 13.56357 | 18579 ft | 376 kts | 87° |
| 2026-04-26 19:51 | 50.09183 | 13.60456 | 19409 ft | 381 kts | 87° |
| 2026-04-26 19:51 | 50.09221 | 13.64549 | 20216 ft | 385 kts | 87° |
| 2026-04-26 19:52 | 50.09258 | 13.68739 | 21044 ft | 389 kts | 88° |
| 2026-04-26 19:52 | 50.09293 | 13.72972 | 21845 ft | 392 kts | 88° |
| 2026-04-26 19:52 | 50.09326 | 13.77205 | 22778 ft | 390 kts | 88° |
| 2026-04-26 19:52 | 50.09359 | 13.81763 | 23880 ft | 385 kts | 88° |
| 2026-04-26 19:53 | 50.09385 | 13.85559 | 24767 ft | 382 kts | 88° |
| 2026-04-26 19:53 | 50.09407 | 13.89683 | 25556 ft | 383 kts | 90° |
| 2026-04-26 19:53 | 50.09088 | 13.93829 | 26237 ft | 387 kts | 104° |
| 2026-04-26 19:53 | 50.08339 | 13.97861 | 26933 ft | 389 kts | 108° |
| 2026-04-26 19:54 | 50.07531 | 14.01876 | 27251 ft | 389 kts | 108° |
| 2026-04-26 19:54 | 50.06707 | 14.05903 | 27285 ft | 390 kts | 108° |
| 2026-04-26 19:54 | 50.05889 | 14.09907 | 27299 ft | 388 kts | 108° |
| 2026-04-26 19:54 | 50.05080 | 14.13913 | 27303 ft | 388 kts | 108° |
| 2026-04-26 19:55 | 50.04285 | 14.17914 | 27302 ft | 388 kts | 108° |
| 2026-04-26 19:55 | 50.03492 | 14.21927 | 27300 ft | 387 kts | 108° |
| 2026-04-26 19:55 | 50.02702 | 14.25932 | 27300 ft | 387 kts | 108° |
| 2026-04-26 19:55 | 50.01911 | 14.29931 | 27298 ft | 387 kts | 108° |
| 2026-04-26 19:56 | 50.01118 | 14.33931 | 27293 ft | 388 kts | 108° |
| 2026-04-26 19:56 | 50.00324 | 14.37921 | 27287 ft | 388 kts | 108° |
| 2026-04-26 19:56 | 49.99522 | 14.41938 | 27286 ft | 388 kts | 108° |
| 2026-04-26 19:56 | 49.98721 | 14.45940 | 27284 ft | 388 kts | 108° |
| 2026-04-26 19:57 | 49.97918 | 14.49944 | 27277 ft | 389 kts | 108° |
| 2026-04-26 19:57 | 49.97110 | 14.53960 | 27274 ft | 389 kts | 108° |
| 2026-04-26 19:57 | 49.96303 | 14.57967 | 27275 ft | 389 kts | 108° |
| 2026-04-26 19:57 | 49.95494 | 14.61975 | 27274 ft | 390 kts | 108° |
| 2026-04-26 19:58 | 49.94681 | 14.65995 | 27270 ft | 390 kts | 108° |
| 2026-04-26 19:58 | 49.93869 | 14.70001 | 27265 ft | 390 kts | 108° |
| 2026-04-26 19:58 | 49.93051 | 14.74027 | 27268 ft | 391 kts | 108° |
| 2026-04-26 19:58 | 49.92219 | 14.78110 | 27365 ft | 403 kts | 108° |
| 2026-04-26 19:59 | 49.91370 | 14.82272 | 27986 ft | 405 kts | 108° |
| 2026-04-26 19:59 | 49.90521 | 14.86428 | 28726 ft | 403 kts | 108° |
| 2026-04-26 19:59 | 49.89668 | 14.90594 | 29153 ft | 407 kts | 108° |
| 2026-04-26 19:59 | 49.88813 | 14.94761 | 29264 ft | 405 kts | 108° |
| 2026-04-26 20:00 | 49.87108 | 15.03040 | 29269 ft | 403 kts | 108° |
| 2026-04-26 20:00 | 49.85393 | 15.11335 | 29276 ft | 405 kts | 108° |
| 2026-04-26 20:01 | 49.83664 | 15.19660 | 29266 ft | 407 kts | 108° |
| 2026-04-26 20:01 | 49.81925 | 15.28001 | 29270 ft | 408 kts | 108° |
| 2026-04-26 20:02 | 49.80187 | 15.36306 | 29265 ft | 409 kts | 108° |
| 2026-04-26 20:02 | 49.78714 | 15.43316 | 29268 ft | 409 kts | 108° |
| 2026-04-26 20:03 | 49.76658 | 15.53050 | 29266 ft | 410 kts | 108° |
| 2026-04-26 20:03 | 49.74883 | 15.61429 | 29017 ft | 413 kts | 107° |
| 2026-04-26 20:04 | 49.73989 | 15.65638 | 28611 ft | 412 kts | 107° |
| 2026-04-26 20:04 | 49.73092 | 15.69847 | 28136 ft | 412 kts | 107° |
| 2026-04-26 20:04 | 49.72194 | 15.74051 | 27651 ft | 412 kts | 107° |
| 2026-04-26 20:04 | 49.71294 | 15.78257 | 27138 ft | 412 kts | 107° |
| 2026-04-26 20:05 | 49.70391 | 15.82467 | 26609 ft | 413 kts | 107° |
| 2026-04-26 20:05 | 49.69487 | 15.86679 | 26108 ft | 413 kts | 107° |
| 2026-04-26 20:05 | 49.68818 | 15.89785 | 25789 ft | 411 kts | 107° |
| 2026-04-26 20:06 | 49.68226 | 15.92533 | 25504 ft | 409 kts | 107° |
| 2026-04-26 20:06 | 49.67327 | 15.96693 | 25069 ft | 407 kts | 107° |
| 2026-04-26 20:06 | 49.66433 | 16.00822 | 24638 ft | 404 kts | 107° |
| 2026-04-26 20:06 | 49.65544 | 16.04922 | 24209 ft | 402 kts | 107° |
| 2026-04-26 20:07 | 49.64659 | 16.08997 | 23779 ft | 399 kts | 107° |
| 2026-04-26 20:07 | 49.63779 | 16.13041 | 23358 ft | 397 kts | 107° |
| 2026-04-26 20:07 | 49.62901 | 16.17067 | 22937 ft | 394 kts | 107° |
| 2026-04-26 20:07 | 49.62028 | 16.21061 | 22513 ft | 392 kts | 107° |
| 2026-04-26 20:08 | 49.61171 | 16.24974 | 22096 ft | 389 kts | 106° |
| 2026-04-26 20:08 | 49.60307 | 16.28914 | 21682 ft | 387 kts | 106° |
| 2026-04-26 20:08 | 49.59436 | 16.32877 | 21259 ft | 384 kts | 106° |
| 2026-04-26 20:08 | 49.58660 | 16.36400 | 20886 ft | 382 kts | 106° |
| 2026-04-26 20:09 | 49.58333 | 16.37887 | 20724 ft | 381 kts | 106° |
| 2026-04-26 20:09 | 49.57492 | 16.41697 | 20314 ft | 379 kts | 106° |
| 2026-04-26 20:10 | 49.56645 | 16.45530 | 19905 ft | 377 kts | 106° |
| 2026-04-26 20:10 | 49.55897 | 16.48909 | 19540 ft | 374 kts | 106° |
| 2026-04-26 20:10 | 49.55786 | 16.49409 | 19490 ft | 374 kts | 106° |
| 2026-04-26 20:10 | 49.54924 | 16.53293 | 19055 ft | 372 kts | 106° |
| 2026-04-26 20:11 | 49.54089 | 16.57051 | 18660 ft | 370 kts | 105° |
| 2026-04-26 20:11 | 49.53259 | 16.60778 | 18258 ft | 367 kts | 105° |
| 2026-04-26 20:11 | 49.52430 | 16.64492 | 17847 ft | 365 kts | 105° |
| 2026-04-26 20:12 | 49.50787 | 16.71829 | 17042 ft | 361 kts | 105° |
| 2026-04-26 20:12 | 49.49973 | 16.75457 | 16642 ft | 358 kts | 105° |
| 2026-04-26 20:12 | 49.49162 | 16.79071 | 16237 ft | 356 kts | 105° |
| 2026-04-26 20:12 | 49.48344 | 16.82709 | 15843 ft | 354 kts | 105° |
| 2026-04-26 20:13 | 49.47551 | 16.86231 | 15446 ft | 352 kts | 105° |
| 2026-04-26 20:13 | 49.46751 | 16.89771 | 15051 ft | 350 kts | 106° |
| 2026-04-26 20:13 | 49.45954 | 16.93293 | 14664 ft | 348 kts | 106° |
| 2026-04-26 20:13 | 49.45163 | 16.96787 | 14271 ft | 345 kts | 105° |
| 2026-04-26 20:14 | 49.44374 | 17.00261 | 13887 ft | 344 kts | 106° |
| 2026-04-26 20:14 | 49.43588 | 17.03718 | 13497 ft | 342 kts | 105° |
| 2026-04-26 20:14 | 49.42805 | 17.07160 | 13104 ft | 340 kts | 105° |
| 2026-04-26 20:14 | 49.42026 | 17.10577 | 12714 ft | 338 kts | 105° |
| 2026-04-26 20:15 | 49.41252 | 17.13961 | 12335 ft | 335 kts | 106° |
| 2026-04-26 20:15 | 49.40482 | 17.17332 | 11956 ft | 333 kts | 105° |
| 2026-04-26 20:15 | 49.39717 | 17.20668 | 11582 ft | 330 kts | 106° |
| 2026-04-26 20:15 | 49.38956 | 17.23987 | 11203 ft | 328 kts | 106° |
| 2026-04-26 20:16 | 49.38200 | 17.27277 | 10833 ft | 326 kts | 106° |
| 2026-04-26 20:16 | 49.37450 | 17.30540 | 10469 ft | 323 kts | 107° |
| 2026-04-26 20:16 | 49.36713 | 17.33739 | 10338 ft | 312 kts | 107° |
| 2026-04-26 20:16 | 49.36003 | 17.36815 | 10245 ft | 300 kts | 107° |
| 2026-04-26 20:17 | 49.35305 | 17.39837 | 9823 ft | 302 kts | 107° |
| 2026-04-26 20:17 | 49.34606 | 17.42860 | 9501 ft | 299 kts | 107° |
| 2026-04-26 20:17 | 49.33911 | 17.45858 | 9189 ft | 297 kts | 107° |
| 2026-04-26 20:17 | 49.33454 | 17.47824 | 8980 ft | 295 kts | 107° |
| 2026-04-26 20:18 | 49.33006 | 17.51864 | 8558 ft | 285 kts | 78° |
| 2026-04-26 20:18 | 49.33662 | 17.54629 | 8372 ft | 271 kts | 56° |
| 2026-04-26 20:18 | 49.34840 | 17.56812 | 8107 ft | 263 kts | 42° |
| 2026-04-26 20:18 | 49.36126 | 17.58789 | 7806 ft | 261 kts | 41° |
| 2026-04-26 20:19 | 49.37419 | 17.60750 | 7502 ft | 261 kts | 41° |
| 2026-04-26 20:19 | 49.38703 | 17.62699 | 7204 ft | 259 kts | 42° |
| 2026-04-26 20:19 | 49.39975 | 17.64642 | 6910 ft | 257 kts | 42° |
| 2026-04-26 20:19 | 49.41242 | 17.66588 | 6610 ft | 257 kts | 42° |
| 2026-04-26 20:20 | 49.42499 | 17.68519 | 6317 ft | 255 kts | 42° |
| 2026-04-26 20:20 | 49.43732 | 17.70419 | 6024 ft | 254 kts | 42° |
| 2026-04-26 20:20 | 49.44979 | 17.72344 | 5785 ft | 248 kts | 42° |
| 2026-04-26 20:20 | 49.46201 | 17.74234 | 5494 ft | 247 kts | 42° |
| 2026-04-26 20:21 | 49.47396 | 17.76085 | 5342 ft | 240 kts | 42° |
| 2026-04-26 20:21 | 49.48540 | 17.77858 | 5229 ft | 233 kts | 42° |
| 2026-04-26 20:21 | 49.49660 | 17.79596 | 5129 ft | 225 kts | 42° |
| 2026-04-26 20:21 | 49.50757 | 17.81300 | 5027 ft | 217 kts | 42° |
| 2026-04-26 20:22 | 49.51812 | 17.82882 | 4949 ft | 206 kts | 40° |
| 2026-04-26 20:22 | 49.52836 | 17.84372 | 4726 ft | 199 kts | 40° |
| 2026-04-26 20:22 | 49.53829 | 17.85817 | 4520 ft | 193 kts | 40° |
| 2026-04-26 20:22 | 49.54770 | 17.87204 | 4327 ft | 187 kts | 42° |
| 2026-04-26 20:23 | 49.55664 | 17.88625 | 4147 ft | 182 kts | 42° |
| 2026-04-26 20:23 | 49.56532 | 17.90018 | 3956 ft | 177 kts | 43° |
| 2026-04-26 20:23 | 49.57374 | 17.91372 | 3785 ft | 173 kts | 42° |
| 2026-04-26 20:23 | 49.58199 | 17.92698 | 3614 ft | 171 kts | 42° |
| 2026-04-26 20:24 | 49.59007 | 17.93998 | 3464 ft | 165 kts | 42° |
| 2026-04-26 20:24 | 49.59790 | 17.95257 | 3285 ft | 161 kts | 42° |
| 2026-04-26 20:24 | 49.60559 | 17.96491 | 3064 ft | 158 kts | 42° |
| 2026-04-26 20:24 | 49.61289 | 17.97665 | 2868 ft | 146 kts | 42° |
| 2026-04-26 20:25 | 49.61965 | 17.98751 | 2722 ft | 135 kts | 42° |
| 2026-04-26 20:25 | 49.62184 | 17.99103 | 2652 ft | 135 kts | 42° |
| 2026-04-26 20:25 | 49.63239 | 18.00797 | 2366 ft | 129 kts | 44° |
| 2026-04-26 20:25 | 49.63861 | 18.01832 | 2186 ft | 134 kts | 45° |
| 2026-04-26 20:26 | 49.64283 | 18.02521 | 2089 ft | 133 kts | 46° |
| 2026-04-26 20:26 | 49.64917 | 18.03564 | 1893 ft | 134 kts | 45° |
| 2026-04-26 20:26 | 49.65581 | 18.04587 | 1740 ft | 134 kts | 44° |
| 2026-04-26 20:26 | 49.66225 | 18.05602 | 1564 ft | 131 kts | 45° |
| 2026-04-26 20:27 | 49.66851 | 18.06611 | 1396 ft | 131 kts | 45° |
| 2026-04-26 20:27 | 49.67478 | 18.07624 | 1228 ft | 130 kts | 46° |
| 2026-04-26 20:27 | 49.68101 | 18.08629 | 1037 ft | 129 kts | 45° |
| 2026-04-26 20:27 | 49.68709 | 18.09609 | 851 ft | 124 kts | 46° |
| 2026-04-26 20:28 | 49.69256 | 18.10497 | 830 ft | 100 kts | 46° |
| 2026-04-26 20:28 | 49.69651 | 18.11133 | 830 ft | 65 kts | 46° |
| 2026-04-26 20:28 | 49.69914 | 18.11554 | 828 ft | 41 kts | 47° |
| 2026-04-26 20:28 | 49.70060 | 18.11793 | 825 ft | 22 kts | 46° |
| 2026-04-26 20:29 | 49.70166 | 18.11964 | 822 ft | 22 kts | 46° |
| 2026-04-26 20:29 | 49.70260 | 18.12121 | 825 ft | 5 kts | 57° |
| 2026-04-26 20:29 | 49.70259 | 18.12184 | 823 ft | 7 kts | 126° |
| 2026-04-26 20:29 | 49.70221 | 18.12233 | 825 ft | 7 kts | 139° |
| 2026-04-26 20:30 | 49.70183 | 18.12285 | 825 ft | 7 kts | 137° |
| 2026-04-26 20:30 | 49.70145 | 18.12339 | 823 ft | 8 kts | 136° |
| 2026-04-26 20:30 | 49.70097 | 18.12412 | 823 ft | 11 kts | 136° |
| 2026-04-26 20:30 | 49.70045 | 18.12459 | 820 ft | 7 kts | 197° |
| 2026-04-26 20:31 | 49.70009 | 18.12410 | 824 ft | 7 kts | 225° |
| 2026-04-26 20:31 | 49.69988 | 18.12376 | 824 ft | 0 kts | 225° |
| 2026-04-26 20:31 | 49.69987 | 18.12376 | 824 ft | 0 kts | 225° |
| 2026-04-26 20:31 | 49.69986 | 18.12374 | 824 ft | 1 kts | 226° |
| 2026-04-26 20:32 | 49.69979 | 18.12362 | 824 ft | 2 kts | 226° |
| 2026-04-26 20:32 | 49.69964 | 18.12338 | 823 ft | 4 kts | 226° |
| 2026-04-26 20:32 | 49.69940 | 18.12298 | 823 ft | 6 kts | 226° |
| 2026-04-26 20:32 | 49.69905 | 18.12242 | 821 ft | 8 kts | 226° |
| 2026-04-26 20:33 | 49.69867 | 18.12179 | 822 ft | 8 kts | 226° |
| 2026-04-26 20:33 | 49.69830 | 18.12119 | 823 ft | 8 kts | 226° |
| 2026-04-26 20:33 | 49.69792 | 18.12059 | 822 ft | 8 kts | 225° |
| 2026-04-26 20:33 | 49.69753 | 18.11998 | 822 ft | 8 kts | 225° |
| 2026-04-26 20:34 | 49.69713 | 18.11945 | 824 ft | 7 kts | 202° |
| 2026-04-26 20:34 | 49.69677 | 18.11959 | 825 ft | 5 kts | 150° |
| 2026-04-26 20:34 | 49.69642 | 18.11962 | 828 ft | 5 kts | 190° |
| 2026-04-26 20:34 | 49.69615 | 18.11987 | 828 ft | 5 kts | 122° |
| 2026-04-26 20:35 | 49.69598 | 18.12010 | 829 ft | 2 kts | 163° |
| 2026-04-26 20:35 | 49.69589 | 18.12012 | 830 ft | 0 kts | 175° |
| 2026-04-26 20:35 | 49.69588 | 18.12012 | 828 ft | 0 kts | 174° |